Airfield :
LOGIN :

Register | Disclaimer

   EN    FR    IT 

 










Legend :    VFR   Marginal VFR   IFR   Intensive IFR   Very Intensive IFR
Visi :
Ceiling :
>= 8 km
>= 3000ft
5 to 8 km
1000 to 3000 ft
1500m to 5 km
500 to 1000 ft
800 to 1500m
200 to 500 ft
< 800m
< 200 ft
Symbols :   Thunderstorms  Fog  Heavy snow  Heavy precipitations  Wind > 20 kt
SIGMETs :     Misc.  Thunderstorms  Icing  Turbulence  Mountain Waves  Volcanic Ashes






- Airport Elevation : 141 ft
- IATA code : SKS


EKSP - Srydstrup Vojens

CURRENT METAR :
  • 141220Z 14009KT 110V170 CAVOK 18/11 Q1008

EXPIRED METARs :
  • 141150Z 12007KT 100V160 CAVOK 18/12 Q1008 TEMPO 6000 SHRA SCT020TCU
  • 141120Z 10005KT 070V130 CAVOK 16/12 Q1008 TEMPO 6000 SHRA SCT020TCU RMK FEW060 BKN080
  • 141050Z 11005KT 9999 FEW045 SCT060 BKN080 15/11 Q1008 TEMPO 6000 SHRA SCT020TCU
  • 141020Z 13006G16KT 090V150 9999 FEW045 BKN060 BKN080 14/11 Q1008 TEMPO 6000 SHRA SCT020TCU
  • 140950Z 09007KT 9999 FEW045 BKN060 BKN080 14/10 Q1008 TEMPO 6000 SHRA SCT020TCU
  • 140920Z 15003KT 9999 FEW025 BKN060 BKN075 14/10 Q1008 TEMPO 6000 SHRA SCT020TCU
  • 140850Z 12007KT 9999 FEW022 SCT060 BKN070 13/10 Q1008 TEMPO 6000 SHRA SCT020TCU
  • 140820Z 10007KT 9999 FEW045 BKN085 13/10 Q1008 TEMPO 4000 SHRA SCT020CB
  • 140750Z 12006KT 9999 FEW045 BKN085 13/10 Q1009 TEMPO 4000 SHRA SCT020CB

TAF TAF EKSP
Valid from the 14 at 12:00 until the 15 at 12:00 UTC


141108Z 1412/1512 12008KT 9999 SCT020 BKN060
TEMPO 1412/1420 6000 SHRA SCT010 BKN020TCU
BECMG 1420/1422 3000 RA BR BKN008 BKN020CB
TEMPO 1422/1512 8000 NSW SCT020



MET'MAP, your aeronautical weather chart ! - Copyright ORBIFLY December 2007 - Disclaimer

ORBIFLY MET'MAP TEAM :

Programming & Development : Alexandra Zaïnal
Original concept : Baudouin d'Aumeries
Technical & hardware support : Manuel Goepfert
Assistance : Marc-Olivier Méhu




SOURCES & CREDITS :

   NOAA